PST,Max TemperatureF,Mean TemperatureF,Min TemperatureF,Max Dew PointF,MeanDew PointF,Min DewpointF,Max Humidity, Mean Humidity, Min Humidity, Max Sea Level PressureIn, Mean Sea Level PressureIn, Min Sea Level PressureIn, Max VisibilityMiles, Mean VisibilityMiles, Min VisibilityMiles, Max Wind SpeedMPH, Mean Wind SpeedMPH, Max Gust SpeedMPH,PrecipitationIn, CloudCover, Events, WindDirDegrees
2013-2-1,64,48,32,48,42,32,100,85,49,30.23,30.20,30.13,10,7,0,8,3,,0.00,0,Fog,189
2013-2-2,60,50,39,55,46,39,100,97,77,30.32,30.26,30.23,10,8,0,10,3,,0.00,2,Fog,352
2013-2-3,59,48,37,52,45,37,100,94,72,30.28,30.21,30.15,10,9,2,12,2,,0.00,2,,359
2013-2-4,57,47,37,54,44,37,100,99,88,30.20,30.14,30.08,10,6,0,13,2,,0.00,4,Fog,359
2013-2-5,57,48,39,48,45,39,100,86,62,30.16,30.11,30.06,10,10,2,18,5,29,0.00,2,,299
2013-2-6,59,47,35,46,41,36,100,82,51,30.22,30.17,30.13,10,10,10,15,5,21,0.00,0,,326
2013-2-7,55,45,35,46,41,36,100,85,51,30.18,30.10,30.01,10,9,1,15,4,21,0.09,4,Rain,277
2013-2-8,55,45,35,41,38,32,100,78,51,30.04,29.99,29.95,10,8,0,16,5,21,0.05,1,Fog,325
2013-2-9,59,46,32,39,32,25,100,63,29,30.11,30.06,30.02,10,10,10,13,6,,0.00,0,,292
2013-2-10,59,44,30,48,36,30,100,82,41,30.15,30.09,30.04,10,10,10,8,2,,0.00,0,,141
2013-2-11,66,49,32,46,35,28,100,74,27,30.25,30.17,30.09,10,10,2,14,2,17,0.00,0,,7
2013-2-12,59,46,32,48,40,32,100,88,45,30.39,30.33,30.25,10,7,0,7,2,,0.00,1,Fog,91
2013-2-13,64,50,35,50,42,36,100,89,40,30.37,30.30,30.22,10,6,0,9,1,,0.00,3,Fog,3
2013-2-14,69,51,33,50,42,34,100,84,33,30.27,30.22,30.17,10,7,0,8,2,,0.00,2,Fog-Rain,153
2013-2-15,68,52,35,48,42,36,100,77,35,30.29,30.25,30.22,10,10,2,10,3,,0.00,0,,187
2013-2-16,68,54,39,50,43,39,100,82,37,30.26,30.15,30.06,10,9,1,7,1,,0.00,0,,62
2013-2-17,64,48,33,48,42,34,100,86,52,30.08,30.03,29.98,10,7,0,8,2,,0.00,1,Fog-Rain,360
2013-2-18,53,42,32,46,39,32,100,85,58,30.04,30.00,29.94,10,8,0,22,4,30,0.00,3,Fog-Rain,271
2013-2-19,48,44,41,46,39,32,100,81,58,29.98,29.85,29.76,10,9,1,17,8,25,0.28,4,Rain,299
2013-2-20,50,42,35,36,33,32,93,71,50,30.01,29.94,29.87,10,10,10,14,9,18,0.00,0,,333
2013-2-21,60,50,39,41,36,32,100,62,34,30.19,30.15,30.11,10,10,10,14,6,16,0.00,0,,313
2013-2-22,62,47,32,46,40,32,100,79,39,30.27,30.22,30.18,10,10,9,16,4,26,0.00,0,,221
2013-2-23,57,52,46,50,37,32,100,62,38,30.28,30.22,30.17,10,10,9,20,11,28,0.00,1,,304
2013-2-24,64,50,35,39,30,21,100,51,22,30.27,30.23,30.18,10,10,10,16,8,18,0.00,0,,341
2013-2-25,66,49,32,45,40,32,100,83,35,30.29,30.24,30.18,10,9,1,15,3,17,0.00,0,,295
2013-2-26,68,50,32,43,36,27,100,71,24,30.25,30.20,30.15,10,10,8,10,3,,0.00,0,,353
2013-2-27,68,50,32,48,39,32,100,76,26,30.37,30.30,30.23,10,9,2,9,2,,0.00,0,,52
2013-2-28,68,57,44,55,51,45,100,88,60,30.46,30.41,30.38,10,10,6,13,3,,0.00,2,,357